Terminal Aerodrome Forecast
Issued by NWS

Home | Current Version | Previous Version | Text Only | Print | Product List | Glossary Off
Versions: 1 2 3 4 5 6 7 8 9 10 11 12 13 14 15 16 17 18 19 20 21

932
FTUS43 KABR 260527
TAFPIR
TAF
KPIR 260527Z 2606/2706 29006KT P6SM SKC
     FM261600 31016G24KT P6SM SKC
     FM270100 VRB04KT P6SM SKC=

USA.gov is the U.S. government's official web portal to all federal, state and local government web resources and services.